Time;durP1;ratioP1;P1;durP2;ratioP2;P2;SDS_P1;SDS_P2;PMS_P1;PMS_P2;Temp;Humidity;BMP_temperature;BMP_pressure;BME280_temperature;BME280_humidity;BME280_pressure;Samples;Min_cycle;Max_cycle;Signal;HPM_P1;HPM_P2
2023/05/17 00:00:53;;;;;;;15.32;3.45;;;10.60;99.90;;;;;;4989119;28;20084;-85
2023/05/17 00:03:18;;;;;;;14.00;3.30;;;10.50;99.90;;;;;;5019627;28;20387;-84
2023/05/17 00:05:44;;;;;;;22.20;4.05;;;10.50;99.90;;;;;;5024160;28;20060;-86
2023/05/17 00:08:10;;;;;;;18.42;4.32;;;10.50;99.90;;;;;;4987384;28;20122;-86
2023/05/17 00:10:35;;;;;;;14.55;3.38;;;10.40;99.90;;;;;;5025780;28;20037;-87
2023/05/17 00:13:02;;;;;;;12.18;3.17;;;10.40;99.90;;;;;;5007691;28;20059;-86
2023/05/17 00:15:28;;;;;;;16.23;3.30;;;10.40;99.90;;;;;;5001064;28;20389;-86
2023/05/17 00:17:54;;;;;;;17.58;3.35;;;10.30;99.90;;;;;;5002050;28;20038;-86
2023/05/17 00:20:21;;;;;;;17.33;3.22;;;10.30;99.90;;;;;;5015991;28;20069;-86
2023/05/17 00:22:46;;;;;;;16.73;3.33;;;10.30;99.90;;;;;;5021621;28;20133;-86
2023/05/17 00:25:12;;;;;;;13.82;2.60;;;10.30;99.90;;;;;;5005063;28;20073;-86
2023/05/17 00:27:38;;;;;;;12.10;3.42;;;10.30;99.90;;;;;;5025078;28;20037;-86
2023/05/17 00:30:05;;;;;;;19.13;3.22;;;10.30;99.90;;;;;;4990594;28;20136;-86
2023/05/17 00:32:31;;;;;;;23.13;2.80;;;10.40;99.90;;;;;;5010603;28;20048;-86
2023/05/17 00:34:56;;;;;;;16.42;2.67;;;10.40;99.90;;;;;;5003228;28;20038;-86
2023/05/17 00:37:22;;;;;;;12.73;2.85;;;10.40;99.90;;;;;;5002212;28;20630;-86
2023/05/17 00:39:48;;;;;;;24.00;3.80;;;10.40;99.90;;;;;;5000600;28;20045;-87
2023/05/17 00:42:14;;;;;;;21.50;4.35;;;10.30;99.90;;;;;;5017553;28;20048;-86
2023/05/17 00:44:40;;;;;;;14.40;2.53;;;10.30;99.90;;;;;;4990441;28;20037;-86
2023/05/17 00:47:05;;;;;;;19.23;2.97;;;10.30;99.90;;;;;;5004985;28;20210;-86
2023/05/17 00:49:31;;;;;;;11.00;3.03;;;10.40;99.90;;;;;;5009215;28;20054;-86
2023/05/17 00:52:00;;;;;;;14.05;2.53;;;10.20;99.90;;;;;;4998783;28;20050;-86
2023/05/17 00:54:26;;;;;;;17.55;3.25;;;10.20;99.90;;;;;;5009658;28;20515;-86
2023/05/17 00:56:53;;;;;;;12.52;2.30;;;10.10;99.90;;;;;;5022650;28;20042;-86
2023/05/17 00:59:22;;;;;;;17.48;3.60;;;10.10;99.90;;;;;;4996803;28;20046;-86
2023/05/17 01:01:49;;;;;;;18.55;4.32;;;10.10;99.90;;;;;;5008342;28;20044;-86
2023/05/17 01:04:14;;;;;;;15.32;2.80;;;10.10;99.90;;;;;;4999935;28;20041;-86
2023/05/17 01:06:40;;;;;;;21.85;3.80;;;10.20;99.90;;;;;;5005332;28;20484;-86
2023/05/17 01:09:07;;;;;;;15.13;2.80;;;10.00;99.90;;;;;;5018155;28;20049;-86
2023/05/17 01:11:44;;;;;;;14.48;3.30;;;10.40;99.90;;;;;;5005205;28;20179;-86
2023/05/17 01:14:35;;;;;;;12.82;2.58;;;10.10;99.90;;;;;;5003300;28;20128;-86
2023/05/17 01:17:05;;;;;;;15.90;2.97;;;10.00;99.90;;;;;;5012732;28;20093;-86
2023/05/17 01:19:49;;;;;;;20.02;3.63;;;10.00;99.90;;;;;;5021659;28;20523;-86
2023/05/17 01:22:19;;;;;;;16.87;2.80;;;10.10;99.90;;;;;;5011875;28;20037;-86
2023/05/17 01:24:59;;;;;;;19.08;2.72;;;10.00;99.90;;;;;;5020100;28;20030;-86
2023/05/17 01:27:27;;;;;;;16.10;2.65;;;10.00;99.90;;;;;;5016195;28;20042;-86
2023/05/17 01:29:55;;;;;;;14.68;2.30;;;10.00;99.90;;;;;;4989212;28;20124;-86
2023/05/17 01:32:22;;;;;;;12.65;2.55;;;10.00;99.90;;;;;;5006397;28;20077;-86
2023/05/17 01:34:48;;;;;;;18.33;2.58;;;10.00;99.90;;;;;;5010937;28;20141;-86
2023/05/17 01:37:13;;;;;;;20.30;3.10;;;9.90;99.90;;;;;;5022004;28;20120;-86
2023/05/17 01:39:40;;;;;;;19.13;2.88;;;9.90;99.90;;;;;;5004686;28;20050;-86
2023/05/17 01:42:23;;;;;;;13.65;2.30;;;9.90;99.90;;;;;;5018191;28;20045;-86
2023/05/17 01:45:06;;;;;;;15.70;3.15;;;9.90;99.90;;;;;;5007298;28;20104;-86
2023/05/17 01:47:35;;;;;;;17.65;3.05;;;9.80;99.90;;;;;;4992823;28;20052;-86
2023/05/17 01:50:04;;;;;;;16.42;2.65;;;9.80;99.90;;;;;;4991304;28;20038;-86
2023/05/17 01:52:41;;;;;;;11.05;2.30;;;9.80;99.90;;;;;;5015683;28;20475;-86
2023/05/17 01:55:38;;;;;;;14.82;3.53;;;9.90;99.90;;;;;;5020702;28;20065;-86
2023/05/17 01:58:06;;;;;;;11.88;2.40;;;9.80;99.90;;;;;;5003748;28;20041;-86
2023/05/17 02:00:33;;;;;;;15.25;2.67;;;9.80;99.90;;;;;;5003153;28;20042;-86
2023/05/17 02:02:59;;;;;;;14.07;2.40;;;10.00;99.90;;;;;;5025651;28;20045;-85
2023/05/17 02:05:24;;;;;;;12.65;2.42;;;9.80;99.90;;;;;;5002773;28;20076;-86
2023/05/17 02:07:50;;;;;;;11.98;2.25;;;9.70;99.90;;;;;;5024176;28;20030;-86
2023/05/17 02:10:16;;;;;;;14.27;2.85;;;9.70;99.90;;;;;;5001974;28;20048;-86
2023/05/17 02:12:42;;;;;;;12.57;2.63;;;9.70;99.90;;;;;;5002012;28;20096;-86
2023/05/17 02:15:10;;;;;;;18.30;2.65;;;9.70;99.90;;;;;;5017872;28;20485;-86
2023/05/17 02:17:38;;;;;;;19.33;2.83;;;9.60;99.90;;;;;;4998708;28;20037;-86
2023/05/17 02:20:05;;;;;;;13.50;2.58;;;9.70;99.90;;;;;;4997605;28;20524;-86
2023/05/17 02:22:30;;;;;;;17.95;2.40;;;9.60;99.90;;;;;;5018646;28;20034;-86
2023/05/17 02:24:56;;;;;;;17.55;2.60;;;9.50;99.90;;;;;;5021212;28;20140;-86
2023/05/17 02:27:21;;;;;;;13.27;2.58;;;9.50;99.90;;;;;;5005654;28;20037;-86
2023/05/17 02:29:47;;;;;;;13.77;2.92;;;9.50;99.90;;;;;;5016689;28;20407;-85
2023/05/17 02:32:12;;;;;;;10.20;2.15;;;9.50;99.90;;;;;;5000876;28;20045;-86
2023/05/17 02:34:38;;;;;;;17.65;3.30;;;9.40;99.90;;;;;;5000042;28;20051;-87
2023/05/17 02:37:04;;;;;;;9.82;2.10;;;9.40;99.90;;;;;;5000976;28;20034;-86
2023/05/17 02:39:32;;;;;;;13.07;2.33;;;9.40;99.90;;;;;;5017575;28;20140;-86
2023/05/17 02:41:57;;;;;;;15.98;2.25;;;9.40;99.90;;;;;;5002568;28;20074;-86
2023/05/17 02:44:23;;;;;;;14.70;2.35;;;9.70;99.90;;;;;;5009133;28;20072;-86
2023/05/17 02:46:49;;;;;;;12.48;2.47;;;9.40;99.90;;;;;;5005101;28;20457;-85
2023/05/17 02:49:14;;;;;;;11.68;2.63;;;9.40;99.90;;;;;;5003322;28;20481;-86
2023/05/17 02:51:40;;;;;;;22.55;2.65;;;9.40;99.90;;;;;;5007429;28;20041;-85
2023/05/17 02:54:05;;;;;;;15.27;2.53;;;9.40;99.90;;;;;;5006058;28;20366;-86
2023/05/17 02:56:31;;;;;;;11.07;1.75;;;9.40;99.90;;;;;;5025656;28;20052;-86
2023/05/17 02:59:00;;;;;;;14.20;2.20;;;9.40;99.90;;;;;;5009518;28;20455;-86
2023/05/17 03:01:26;;;;;;;12.95;2.60;;;9.40;99.90;;;;;;5005707;28;20042;-86
2023/05/17 03:03:52;;;;;;;10.43;2.47;;;9.50;99.90;;;;;;5004783;28;20049;-86
2023/05/17 03:06:17;;;;;;;10.43;1.83;;;9.50;99.90;;;;;;5024299;28;20037;-86
2023/05/17 03:08:43;;;;;;;7.97;1.65;;;9.90;99.90;;;;;;5003083;28;20038;-86
2023/05/17 03:11:08;;;;;;;13.80;2.55;;;9.50;99.90;;;;;;5004424;28;20096;-86
2023/05/17 03:13:34;;;;;;;17.10;1.95;;;9.40;99.90;;;;;;5021405;28;20044;-86
2023/05/17 03:16:00;;;;;;;16.75;2.30;;;9.40;99.90;;;;;;4998613;28;20077;-86
2023/05/17 03:18:25;;;;;;;15.80;2.10;;;9.50;99.90;;;;;;5025940;28;20058;-87
2023/05/17 03:20:51;;;;;;;11.50;2.15;;;9.60;99.90;;;;;;5022978;28;20038;-86
2023/05/17 03:23:17;;;;;;;11.85;2.58;;;9.50;99.90;;;;;;5005896;28;20408;-86
2023/05/17 03:25:42;;;;;;;8.18;1.90;;;9.50;99.90;;;;;;5022953;28;20034;-86
2023/05/17 03:28:08;;;;;;;10.63;1.98;;;9.50;99.90;;;;;;5019240;28;20073;-86
2023/05/17 03:30:34;;;;;;;13.40;2.00;;;9.40;99.90;;;;;;5001568;28;20548;-86
2023/05/17 03:32:59;;;;;;;8.35;1.70;;;9.40;99.90;;;;;;5006937;28;20099;-86
2023/05/17 03:35:25;;;;;;;16.70;2.13;;;9.40;99.90;;;;;;5022305;28;20042;-86
2023/05/17 03:37:51;;;;;;;12.82;2.33;;;9.70;99.90;;;;;;5029238;28;20045;-87
2023/05/17 03:40:16;;;;;;;10.07;1.65;;;9.50;99.90;;;;;;5020398;28;20435;-86
2023/05/17 03:42:42;;;;;;;13.02;1.73;;;9.50;99.90;;;;;;5002490;28;20038;-86
2023/05/17 03:45:08;;;;;;;11.90;1.58;;;9.50;99.90;;;;;;4997334;28;20045;-86
2023/05/17 03:47:34;;;;;;;10.93;1.77;;;9.50;99.90;;;;;;5006735;28;20037;-86
2023/05/17 03:49:59;;;;;;;12.73;1.85;;;9.50;99.90;;;;;;5011030;28;20114;-86
2023/05/17 03:52:25;;;;;;;8.98;1.95;;;9.50;99.90;;;;;;5003231;28;20042;-86
2023/05/17 03:54:50;;;;;;;9.35;1.52;;;9.40;99.90;;;;;;5017250;28;20049;-86
2023/05/17 03:57:17;;;;;;;7.85;1.73;;;9.40;99.90;;;;;;5006650;28;20369;-86
2023/05/17 03:59:42;;;;;;;11.18;2.10;;;9.40;99.90;;;;;;5006016;28;20033;-86
2023/05/17 04:02:08;;;;;;;13.93;1.67;;;9.40;99.90;;;;;;5018402;28;20041;-86
2023/05/17 04:04:33;;;;;;;9.23;1.63;;;9.30;99.90;;;;;;5020405;28;20038;-86
2023/05/17 04:06:59;;;;;;;12.95;1.92;;;9.30;99.90;;;;;;5011452;28;20042;-86
2023/05/17 04:09:24;;;;;;;10.60;2.13;;;9.70;99.90;;;;;;5005007;28;20103;-86
2023/05/17 04:11:50;;;;;;;8.13;1.75;;;9.30;99.90;;;;;;5006621;28;20033;-86
2023/05/17 04:14:17;;;;;;;8.50;1.75;;;9.30;99.90;;;;;;5005336;28;20056;-86
2023/05/17 04:16:43;;;;;;;11.10;1.40;;;9.30;99.90;;;;;;5000646;28;20044;-86
2023/05/17 04:19:09;;;;;;;9.48;1.38;;;9.30;99.90;;;;;;5019308;28;20120;-85
2023/05/17 04:21:34;;;;;;;9.98;2.05;;;9.60;99.90;;;;;;5004472;28;20042;-86
2023/05/17 04:24:00;;;;;;;6.90;1.13;;;9.70;99.90;;;;;;4996874;28;20034;-86
2023/05/17 04:26:26;;;;;;;11.77;1.30;;;9.30;99.90;;;;;;5003848;28;20041;-86
2023/05/17 04:28:51;;;;;;;13.65;1.95;;;9.40;99.90;;;;;;5020857;28;20041;-86
2023/05/17 04:31:17;;;;;;;12.20;1.50;;;9.30;99.90;;;;;;4985286;28;20116;-86
2023/05/17 04:33:43;;;;;;;9.68;1.27;;;9.40;99.90;;;;;;5007520;28;20481;-86
2023/05/17 04:36:08;;;;;;;9.65;1.65;;;9.30;99.90;;;;;;5006065;28;20045;-86
2023/05/17 04:38:34;;;;;;;9.25;1.33;;;9.40;99.90;;;;;;5004481;28;20568;-86
2023/05/17 04:41:03;;;;;;;5.88;1.20;;;9.40;99.90;;;;;;5008164;28;20038;-86
2023/05/17 04:43:29;;;;;;;7.65;1.20;;;9.30;99.90;;;;;;5019571;28;20117;-86
2023/05/17 04:45:56;;;;;;;6.05;1.27;;;9.40;99.90;;;;;;5019546;28;20037;-86
2023/05/17 04:48:22;;;;;;;9.20;1.48;;;9.40;99.90;;;;;;5004958;28;20052;-86
2023/05/17 04:50:48;;;;;;;11.75;1.65;;;9.40;99.90;;;;;;5022978;28;20029;-86
2023/05/17 04:53:14;;;;;;;7.03;1.17;;;9.40;99.90;;;;;;5021623;28;20504;-87
2023/05/17 04:55:40;;;;;;;8.15;1.00;;;9.40;99.90;;;;;;5012287;28;20045;-86
2023/05/17 04:58:06;;;;;;;7.47;1.20;;;9.40;99.90;;;;;;5006704;28;20041;-86
2023/05/17 05:00:32;;;;;;;5.18;1.08;;;9.50;99.90;;;;;;4990244;28;20041;-86
2023/05/17 05:02:57;;;;;;;9.25;1.52;;;9.50;99.90;;;;;;5002474;28;20044;-85
2023/05/17 05:05:24;;;;;;;7.25;1.10;;;9.50;99.90;;;;;;5022402;28;20037;-85
2023/05/17 05:07:50;;;;;;;10.45;1.38;;;9.50;99.90;;;;;;4991509;28;20037;-85
2023/05/17 05:10:15;;;;;;;7.68;1.30;;;9.50;99.90;;;;;;4990619;28;20045;-85
2023/05/17 05:12:41;;;;;;;7.32;1.25;;;9.50;99.90;;;;;;5016629;28;20042;-85
2023/05/17 05:15:07;;;;;;;8.32;1.27;;;9.50;99.90;;;;;;5017600;28;20053;-85
2023/05/17 05:17:33;;;;;;;10.57;1.30;;;9.50;99.90;;;;;;4980379;28;20408;-86
2023/05/17 05:19:59;;;;;;;9.18;1.10;;;9.60;99.90;;;;;;5022503;28;20042;-89
2023/05/17 05:22:25;;;;;;;8.80;2.20;;;9.60;99.90;;;;;;5023150;28;20084;-87
2023/05/17 05:24:50;;;;;;;14.05;1.50;;;9.70;99.90;;;;;;5020740;28;20099;-85
2023/05/17 05:27:16;;;;;;;12.20;1.13;;;9.80;99.90;;;;;;5014919;28;20041;-86
2023/05/17 05:29:42;;;;;;;11.98;1.38;;;9.80;99.90;;;;;;5019436;28;20033;-85
2023/05/17 05:32:08;;;;;;;7.38;1.25;;;9.70;99.90;;;;;;4982053;28;20361;-85
2023/05/17 05:34:33;;;;;;;8.27;1.48;;;10.10;99.90;;;;;;4996835;28;20045;-86
2023/05/17 05:36:59;;;;;;;7.97;1.25;;;9.70;99.90;;;;;;5004150;28;20500;-86
2023/05/17 05:39:26;;;;;;;8.45;1.08;;;9.70;99.90;;;;;;5014789;28;20099;-85
2023/05/17 05:41:52;;;;;;;7.38;1.20;;;9.80;99.90;;;;;;5016980;28;20041;-85
2023/05/17 05:44:18;;;;;;;8.77;1.08;;;9.80;99.90;;;;;;5004193;28;20496;-85
2023/05/17 05:46:43;;;;;;;9.13;1.27;;;9.90;99.90;;;;;;4999230;28;20693;-85
2023/05/17 05:49:09;;;;;;;11.95;1.98;;;9.90;99.90;;;;;;5019562;28;20049;-85
2023/05/17 05:51:35;;;;;;;8.38;1.17;;;10.00;99.90;;;;;;5019842;28;20041;-86
2023/05/17 05:54:00;;;;;;;9.15;1.13;;;10.00;99.90;;;;;;5007790;28;20468;-86
2023/05/17 05:56:26;;;;;;;11.48;1.10;;;10.00;99.90;;;;;;5009228;28;20034;-86
2023/05/17 05:58:55;;;;;;;10.00;1.55;;;10.10;99.90;;;;;;5002497;28;20132;-86
2023/05/17 06:01:21;;;;;;;6.13;1.15;;;10.10;99.90;;;;;;5008356;28;20125;-89
2023/05/17 06:03:46;;;;;;;8.35;1.42;;;10.00;99.90;;;;;;5022113;28;20037;-87
2023/05/17 06:06:12;;;;;;;6.03;2.20;;;10.00;99.90;;;;;;5003661;28;20052;-87
2023/05/17 06:08:37;;;;;;;8.80;1.58;;;10.00;99.90;;;;;;5001264;28;20049;-87
2023/05/17 06:11:03;;;;;;;7.95;1.48;;;10.00;99.90;;;;;;5023393;28;20046;-88
2023/05/17 06:13:29;;;;;;;10.25;1.65;;;10.00;99.90;;;;;;5006101;28;20072;-89
2023/05/17 06:15:55;;;;;;;9.90;1.30;;;10.10;99.90;;;;;;5002577;28;20045;-88
2023/05/17 06:18:20;;;;;;;12.07;1.48;;;10.10;99.90;;;;;;5002381;28;20044;-88
2023/05/17 06:20:46;;;;;;;12.10;1.85;;;10.20;99.90;;;;;;5011810;28;20045;-89
2023/05/17 06:23:12;;;;;;;16.10;1.92;;;10.20;99.90;;;;;;5020269;28;21911;-88
2023/05/17 06:25:39;;;;;;;6.68;1.08;;;10.30;99.90;;;;;;5005554;28;20125;-88
2023/05/17 06:28:04;;;;;;;9.80;1.35;;;10.30;99.90;;;;;;5005879;28;20038;-89
2023/05/17 06:30:30;;;;;;;9.77;1.30;;;10.40;99.90;;;;;;5001720;28;20465;-89
2023/05/17 06:32:56;;;;;;;11.02;1.48;;;10.40;99.90;;;;;;5012277;28;20148;-88
2023/05/17 06:35:21;;;;;;;15.25;1.50;;;10.40;99.90;;;;;;4993605;28;20042;-89
2023/05/17 06:37:47;;;;;;;7.18;1.35;;;10.50;99.90;;;;;;5010779;28;20060;-90
2023/05/17 06:40:13;;;;;;;12.48;2.03;;;10.50;99.90;;;;;;5028771;28;20041;-89
2023/05/17 06:42:39;;;;;;;12.85;1.98;;;10.50;99.90;;;;;;5018961;28;20038;-89
2023/05/17 06:45:06;;;;;;;9.73;1.77;;;10.80;99.90;;;;;;5025850;28;20076;-90
2023/05/17 06:47:31;;;;;;;15.85;1.92;;;10.50;99.90;;;;;;5004451;28;20046;-89
2023/05/17 06:49:57;;;;;;;11.93;1.77;;;10.70;99.90;;;;;;5008099;28;20113;-89
2023/05/17 06:52:22;;;;;;;12.82;1.63;;;10.50;99.90;;;;;;5000480;28;20041;-89
2023/05/17 06:54:48;;;;;;;15.20;2.65;;;10.50;99.90;;;;;;5019988;28;20410;-89
2023/05/17 06:57:14;;;;;;;10.70;1.98;;;10.50;99.90;;;;;;5010309;28;20060;-89
2023/05/17 06:59:39;;;;;;;11.30;1.73;;;10.50;99.90;;;;;;5015493;28;20041;-91
2023/05/17 07:02:05;;;;;;;13.57;1.85;;;10.50;99.90;;;;;;5029564;28;20772;-88
2023/05/17 07:04:31;;;;;;;13.90;1.92;;;10.50;99.90;;;;;;5011225;28;20041;-88
2023/05/17 07:06:57;;;;;;;12.27;2.13;;;10.50;99.90;;;;;;4995324;28;20046;-88
2023/05/17 07:09:22;;;;;;;7.47;1.48;;;10.50;99.90;;;;;;5001764;28;20050;-88
2023/05/17 07:11:48;;;;;;;10.43;2.03;;;10.50;99.90;;;;;;5000891;28;20511;-88
2023/05/17 07:14:14;;;;;;;20.83;2.15;;;10.50;99.90;;;;;;5003286;28;20052;-88
2023/05/17 07:16:40;;;;;;;12.70;2.00;;;10.50;99.90;;;;;;4993629;28;20395;-87
2023/05/17 07:19:05;;;;;;;13.27;2.22;;;10.70;99.90;;;;;;5004661;28;20388;-89
2023/05/17 07:21:31;;;;;;;9.98;2.00;;;10.50;99.90;;;;;;5020922;28;20049;-89
2023/05/17 07:23:57;;;;;;;13.52;2.00;;;10.70;99.90;;;;;;5006975;28;20047;-89
2023/05/17 07:26:23;;;;;;;8.80;1.70;;;10.50;99.90;;;;;;5005707;28;20124;-87
2023/05/17 07:28:49;;;;;;;13.13;2.22;;;10.60;99.90;;;;;;4994492;28;20287;-89
2023/05/17 07:31:15;;;;;;;11.38;1.98;;;10.90;99.90;;;;;;4992722;28;20042;-88
2023/05/17 07:33:41;;;;;;;38.05;20.17;;;10.60;99.90;;;;;;5025143;28;20038;-88
2023/05/17 07:36:07;;;;;;;8.25;1.40;;;10.70;99.90;;;;;;5004933;28;20129;-88
2023/05/17 07:38:35;;;;;;;10.32;2.78;;;10.80;99.90;;;;;;5014245;28;20111;-88
2023/05/17 07:41:02;;;;;;;15.48;2.33;;;10.80;99.90;;;;;;5003594;28;20073;-92
2023/05/17 07:43:28;;;;;;;12.00;2.38;;;10.80;99.90;;;;;;5034611;28;20037;-91
2023/05/17 07:45:54;;;;;;;12.98;1.98;;;10.90;99.90;;;;;;5014573;28;20097;-86
2023/05/17 07:48:19;;;;;;;10.60;2.30;;;10.90;99.90;;;;;;5003203;28;20052;-86
2023/05/17 07:50:45;;;;;;;16.38;2.65;;;11.00;99.90;;;;;;5001055;28;20096;-91
2023/05/17 07:53:11;;;;;;;11.73;2.03;;;11.00;99.90;;;;;;5004854;28;20403;-90
2023/05/17 07:55:37;;;;;;;17.27;2.40;;;11.10;99.90;;;;;;5004063;28;20088;-93
2023/05/17 07:58:03;;;;;;;14.15;1.75;;;11.00;99.90;;;;;;5001376;28;20081;-93
2023/05/17 08:02:57;;;;;;;11.20;2.13;;;11.00;99.90;;;;;;4992948;28;20054;-90
2023/05/17 08:05:22;;;;;;;11.93;2.13;;;11.00;99.90;;;;;;4974175;28;20050;-92
2023/05/17 08:07:48;;;;;;;11.88;2.05;;;11.00;99.90;;;;;;4992273;28;20030;-92
2023/05/17 08:10:14;;;;;;;14.23;1.88;;;12.00;99.90;;;;;;4977789;28;20393;-92
2023/05/17 08:12:39;;;;;;;12.20;2.22;;;11.20;99.90;;;;;;4977829;28;20049;-92
2023/05/17 08:15:06;;;;;;;14.70;2.13;;;11.30;99.90;;;;;;4968619;28;20390;-94
2023/05/17 08:17:31;;;;;;;18.58;2.22;;;11.20;99.90;;;;;;4972666;28;20034;-94
2023/05/17 08:19:57;;;;;;;16.67;2.53;;;11.30;99.90;;;;;;4991231;28;20287;-93
2023/05/17 08:22:23;;;;;;;8.40;1.55;;;11.30;99.90;;;;;;4992373;28;20034;-92
2023/05/17 08:24:48;;;;;;;21.08;2.30;;;11.40;99.90;;;;;;4992360;28;20669;-94
2023/05/17 08:27:14;;;;;;;10.40;2.10;;;11.50;99.90;;;;;;4990947;28;20042;-93
2023/05/17 08:29:40;;;;;;;12.50;2.13;;;11.50;99.90;;;;;;4992171;28;20081;-92
2023/05/17 08:32:06;;;;;;;15.52;2.08;;;11.50;99.90;;;;;;4974872;28;20438;-92
2023/05/17 08:34:31;;;;;;;11.23;1.88;;;11.50;99.90;;;;;;4992427;28;20125;-93
2023/05/17 08:36:57;;;;;;;14.20;2.08;;;11.50;99.90;;;;;;4975075;28;20129;-94
2023/05/17 08:39:23;;;;;;;9.13;1.63;;;11.50;99.90;;;;;;4992142;28;20477;-92
2023/05/17 08:41:49;;;;;;;8.93;1.40;;;11.50;99.90;;;;;;4973871;28;20038;-93
2023/05/17 08:44:18;;;;;;;12.85;2.03;;;11.60;99.90;;;;;;4971994;28;20415;-94
2023/05/17 08:46:52;;;;;;;12.35;1.80;;;11.70;99.90;;;;;;4971528;28;20404;-94
2023/05/17 08:49:20;;;;;;;7.72;1.58;;;11.80;99.90;;;;;;4958295;28;20109;-94
2023/05/17 08:51:48;;;;;;;14.25;1.92;;;11.70;99.90;;;;;;4967593;28;20050;-94
2023/05/17 08:54:14;;;;;;;7.30;1.27;;;11.80;99.90;;;;;;4986369;28;20057;-93
2023/05/17 08:56:42;;;;;;;10.75;1.85;;;11.80;99.90;;;;;;4989411;28;20035;-93
2023/05/17 08:59:09;;;;;;;8.38;1.70;;;11.80;99.90;;;;;;4989882;28;20385;-95
2023/05/17 09:01:38;;;;;;;10.32;1.83;;;11.70;99.90;;;;;;4988969;28;20515;-94
2023/05/17 09:04:07;;;;;;;7.93;1.15;;;11.70;99.90;;;;;;4972120;28;20046;-94
2023/05/17 09:06:34;;;;;;;11.90;1.95;;;11.90;99.90;;;;;;4973927;28;20053;-95
2023/05/17 09:09:00;;;;;;;9.07;1.40;;;12.20;99.90;;;;;;4989709;28;20069;-92
2023/05/17 09:11:32;;;;;;;12.40;2.28;;;12.40;99.90;;;;;;4988451;28;20100;-91
2023/05/17 09:14:03;;;;;;;11.38;1.70;;;12.50;99.90;;;;;;4972009;28;20057;-94
2023/05/17 09:16:32;;;;;;;13.52;2.05;;;12.50;99.90;;;;;;4989480;28;20049;-90
2023/05/17 09:18:59;;;;;;;8.60;1.02;;;12.70;99.90;;;;;;4983704;28;20405;-90
2023/05/17 09:21:26;;;;;;;13.02;1.42;;;12.70;99.90;;;;;;4971244;28;20554;-89
2023/05/17 09:23:53;;;;;;;9.43;1.98;;;12.70;99.90;;;;;;4988337;28;20607;-89
2023/05/17 09:26:20;;;;;;;7.43;1.30;;;12.70;99.90;;;;;;4970498;28;20092;-88
2023/05/17 09:28:47;;;;;;;9.18;1.30;;;12.60;99.90;;;;;;4988017;28;20120;-89
2023/05/17 09:31:15;;;;;;;5.50;1.15;;;12.60;99.90;;;;;;4989945;28;20578;-89
2023/05/17 09:33:48;;;;;;;10.07;1.77;;;12.60;99.90;;;;;;4987527;28;20097;-89
2023/05/17 09:36:22;;;;;;;7.97;1.52;;;12.60;99.90;;;;;;4971961;28;20049;-90
2023/05/17 09:39:10;;;;;;;11.63;1.40;;;12.60;99.90;;;;;;4970793;28;20057;-90
2023/05/17 09:41:56;;;;;;;7.75;1.20;;;12.60;99.90;;;;;;4987140;28;20105;-89
2023/05/17 09:44:23;;;;;;;7.50;1.40;;;12.70;99.90;;;;;;4980400;28;20077;-91
2023/05/17 09:46:49;;;;;;;7.85;1.30;;;12.80;99.90;;;;;;4987187;28;20042;-89
2023/05/17 09:49:16;;;;;;;7.53;1.40;;;12.70;99.90;;;;;;4970750;28;20404;-92
2023/05/17 09:51:47;;;;;;;16.83;3.17;;;12.60;99.90;;;;;;4967116;28;20416;-91
2023/05/17 09:54:12;;;;;;;8.00;1.20;;;12.60;99.90;;;;;;4975231;28;20050;-92
2023/05/17 09:56:39;;;;;;;12.70;1.65;;;12.90;99.90;;;;;;4997652;28;20039;-93
2023/05/17 09:59:11;;;;;;;8.50;1.27;;;12.70;99.90;;;;;;4999872;28;20057;-91
2023/05/17 10:01:40;;;;;;;13.63;1.55;;;12.60;99.90;;;;;;4995088;28;20058;-92
2023/05/17 10:04:11;;;;;;;7.22;1.33;;;12.70;99.90;;;;;;4993071;28;20149;-92
2023/05/17 10:06:40;;;;;;;9.80;1.73;;;12.60;99.90;;;;;;4987356;28;20039;-89
2023/05/17 10:09:09;;;;;;;11.68;1.45;;;12.70;99.90;;;;;;4973539;28;20053;-91
2023/05/17 10:11:36;;;;;;;8.00;1.50;;;12.70;99.90;;;;;;4974790;28;20065;-92
2023/05/17 10:14:22;;;;;;;11.30;1.52;;;12.70;99.90;;;;;;4973140;28;20045;-91
2023/05/17 10:16:50;;;;;;;11.13;2.28;;;12.80;99.90;;;;;;4972836;28;20043;-90
2023/05/17 10:19:18;;;;;;;9.85;1.58;;;12.80;99.90;;;;;;4992292;28;20045;-90
2023/05/17 10:21:46;;;;;;;9.57;1.25;;;12.90;99.90;;;;;;4958540;28;20038;-82
2023/05/17 10:24:12;;;;;;;9.77;1.60;;;12.90;99.90;;;;;;4973094;28;20046;-89
2023/05/17 10:26:38;;;;;;;9.95;1.80;;;13.00;99.90;;;;;;4991164;28;20397;-89
2023/05/17 10:29:04;;;;;;;10.98;2.30;;;13.00;99.90;;;;;;4992839;28;20038;-90
2023/05/17 10:31:32;;;;;;;7.35;1.30;;;13.10;99.90;;;;;;4974652;28;20073;-91
2023/05/17 10:34:00;;;;;;;14.13;2.08;;;13.30;99.90;;;;;;4991787;28;20520;-91
2023/05/17 10:36:27;;;;;;;8.55;1.35;;;13.30;99.90;;;;;;4992406;28;20042;-90
2023/05/17 10:38:54;;;;;;;6.63;1.15;;;13.40;99.90;;;;;;4992564;28;20113;-90
2023/05/17 10:41:23;;;;;;;5.30;1.00;;;13.50;99.90;;;;;;4989619;28;20064;-92
2023/05/17 10:43:50;;;;;;;6.50;1.17;;;13.40;99.90;;;;;;4970925;28;20042;-90
2023/05/17 10:46:21;;;;;;;9.40;1.30;;;13.50;99.90;;;;;;4990994;28;20038;-90
2023/05/17 10:48:51;;;;;;;7.80;1.17;;;13.60;99.90;;;;;;4964330;28;20077;-89
2023/05/17 10:51:23;;;;;;;9.02;1.38;;;13.80;99.90;;;;;;4984568;28;20133;-91
2023/05/17 10:54:06;;;;;;;6.35;1.17;;;13.80;99.90;;;;;;4972736;28;20038;-90
2023/05/17 10:56:32;;;;;;;6.50;1.10;;;13.80;99.80;;;;;;4973618;28;20485;-91
2023/05/17 10:59:14;;;;;;;8.40;1.13;;;14.00;99.90;;;;;;4971542;28;20121;-89
2023/05/17 11:02:06;;;;;;;5.55;1.38;;;14.20;99.60;;;;;;4983160;28;20057;-88
2023/05/17 11:04:42;;;;;;;8.55;1.42;;;14.30;99.90;;;;;;4989093;28;20046;-87
2023/05/17 11:07:17;;;;;;;7.00;1.27;;;14.30;99.90;;;;;;4989530;28;20046;-87
2023/05/17 11:09:54;;;;;;;9.05;1.10;;;14.40;99.50;;;;;;4972292;28;20034;-87
2023/05/17 11:12:34;;;;;;;5.93;0.98;;;14.20;99.90;;;;;;4988394;28;20046;-90
2023/05/17 11:15:05;;;;;;;6.20;1.35;;;14.20;99.90;;;;;;4988141;28;20042;-88
2023/05/17 11:17:43;;;;;;;6.63;1.17;;;14.30;99.90;;;;;;4969938;28;20043;-87
2023/05/17 11:20:15;;;;;;;9.48;1.42;;;14.30;99.90;;;;;;4990757;28;20046;-85
2023/05/17 11:22:42;;;;;;;12.48;1.73;;;14.40;99.70;;;;;;4990717;28;20046;-87
2023/05/17 11:25:11;;;;;;;8.25;1.23;;;14.40;99.40;;;;;;4972799;28;20050;-89
2023/05/17 11:27:38;;;;;;;8.75;1.60;;;14.40;99.50;;;;;;4988867;28;20034;-93
2023/05/17 11:30:23;;;;;;;8.90;1.63;;;14.40;99.70;;;;;;4995574;28;20034;-92
2023/05/17 11:32:51;;;;;;;9.82;1.58;;;14.30;99.80;;;;;;4993089;28;20046;-89
2023/05/17 11:35:22;;;;;;;7.70;1.52;;;14.20;99.70;;;;;;4976418;28;20154;-90
2023/05/17 11:38:11;;;;;;;6.55;1.40;;;14.40;99.90;;;;;;4971077;28;20121;-94
2023/05/17 11:40:37;;;;;;;9.90;1.58;;;14.50;99.90;;;;;;4972517;28;20050;-89
2023/05/17 11:43:17;;;;;;;11.82;2.15;;;14.40;98.90;;;;;;4989343;28;20030;-88
2023/05/17 11:45:50;;;;;;;9.93;1.83;;;14.30;98.80;;;;;;4990282;28;20045;-88
2023/05/17 11:48:19;;;;;;;8.47;1.13;;;14.10;98.50;;;;;;4990574;28;20047;-95
2023/05/17 11:50:47;;;;;;;8.45;1.60;;;14.20;99.20;;;;;;4990034;28;20030;-85
2023/05/17 11:53:13;;;;;;;8.00;1.30;;;14.10;99.20;;;;;;4989969;28;20064;-88
2023/05/17 11:55:39;;;;;;;7.57;1.27;;;14.10;99.10;;;;;;4986775;28;20389;-87
2023/05/17 11:58:11;;;;;;;8.05;1.73;;;14.20;98.80;;;;;;4968787;28;20042;-88
2023/05/17 12:00:39;;;;;;;6.00;1.27;;;14.40;98.70;;;;;;4972375;28;20038;-86
2023/05/17 12:03:25;;;;;;;6.38;1.35;;;14.50;98.40;;;;;;4988572;28;20034;-87
2023/05/17 12:06:01;;;;;;;9.65;1.50;;;14.70;97.80;;;;;;4972750;28;20034;-89
2023/05/17 12:08:27;;;;;;;7.90;1.55;;;14.80;98.20;;;;;;4988746;28;20050;-87
2023/05/17 12:10:56;;;;;;;10.50;1.58;;;14.80;98.00;;;;;;4989484;28;20039;-87
2023/05/17 12:13:21;;;;;;;7.60;1.60;;;14.90;98.00;;;;;;4954580;28;20491;-87
2023/05/17 12:15:54;;;;;;;7.45;1.75;;;14.90;97.70;;;;;;4986980;28;20117;-88
2023/05/17 12:18:20;;;;;;;12.93;1.98;;;14.90;97.70;;;;;;4985826;28;20117;-90
2023/05/17 12:20:56;;;;;;;8.38;1.45;;;15.00;97.70;;;;;;4970881;28;20561;-87
2023/05/17 12:23:33;;;;;;;9.25;1.60;;;15.10;97.60;;;;;;4987558;28;20057;-86
2023/05/17 12:26:22;;;;;;;5.25;1.20;;;15.20;97.00;;;;;;4954542;28;20042;-86
2023/05/17 12:28:56;;;;;;;8.85;1.30;;;15.10;97.00;;;;;;4967187;28;20535;-88
2023/05/17 12:31:31;;;;;;;11.65;1.33;;;15.00;96.50;;;;;;4988607;28;20117;-86
2023/05/17 12:33:58;;;;;;;9.60;1.23;;;15.00;97.10;;;;;;4987887;28;20035;-85
2023/05/17 12:36:26;;;;;;;7.20;1.13;;;15.20;95.30;;;;;;4988276;28;20500;-84
2023/05/17 12:38:52;;;;;;;8.07;1.80;;;15.30;95.70;;;;;;4988644;28;20101;-84
2023/05/17 12:41:21;;;;;;;9.70;1.25;;;15.30;95.10;;;;;;4988136;28;20046;-84
2023/05/17 12:43:48;;;;;;;7.75;1.33;;;15.30;95.60;;;;;;4988212;28;20035;-85
2023/05/17 12:46:19;;;;;;;7.68;1.45;;;15.40;95.40;;;;;;4973898;28;20053;-87
2023/05/17 12:48:45;;;;;;;8.38;1.50;;;15.60;95.40;;;;;;4975733;28;20042;-88